createdAt,value
2023-07-26T00:01:07.725Z,3.40
2023-07-26T00:03:34.160Z,3.28
2023-07-26T00:06:00.669Z,3.00
2023-07-26T00:08:27.052Z,3.10
2023-07-26T00:10:53.436Z,2.90
2023-07-26T00:13:19.794Z,2.83
2023-07-26T00:15:46.273Z,2.85
2023-07-26T00:18:12.703Z,3.08
2023-07-26T00:20:39.144Z,2.72
2023-07-26T00:23:05.568Z,2.80
2023-07-26T00:25:31.967Z,3.05
2023-07-26T00:27:58.350Z,2.83
2023-07-26T00:30:24.735Z,2.90
2023-07-26T00:32:51.190Z,2.97
2023-07-26T00:35:22.405Z,3.10
2023-07-26T00:37:51.045Z,3.55
2023-07-26T00:40:17.495Z,3.53
2023-07-26T00:42:43.862Z,3.72
2023-07-26T00:45:11.097Z,3.20
2023-07-26T00:47:37.982Z,3.45
2023-07-26T00:50:05.715Z,3.20
2023-07-26T00:52:32.835Z,3.88
2023-07-26T00:54:59.981Z,3.50
2023-07-26T00:57:26.354Z,3.33
2023-07-26T00:59:53.472Z,3.53
2023-07-26T01:02:19.907Z,3.53
2023-07-26T01:04:46.338Z,3.20
2023-07-26T01:07:23.013Z,3.65
2023-07-26T01:10:02.092Z,3.17
2023-07-26T01:12:38.227Z,3.90
2023-07-26T01:15:16.029Z,3.38
2023-07-26T01:17:42.456Z,3.70
2023-07-26T01:20:09.058Z,4.15
2023-07-26T01:22:35.424Z,3.30
2023-07-26T01:25:01.838Z,3.25
2023-07-26T01:27:28.219Z,3.78
2023-07-26T01:29:54.705Z,3.60
2023-07-26T01:32:22.829Z,3.50
2023-07-26T01:34:49.934Z,3.85
2023-07-26T01:37:18.754Z,3.60
2023-07-26T01:39:45.715Z,3.78
2023-07-26T01:42:12.555Z,3.85
2023-07-26T01:44:39.036Z,3.97
2023-07-26T01:47:05.552Z,4.30
2023-07-26T01:49:32.018Z,4.40
2023-07-26T01:51:58.370Z,4.00
2023-07-26T01:54:24.752Z,4.40
2023-07-26T01:56:51.123Z,4.53
2023-07-26T01:59:17.508Z,4.07
2023-07-26T02:01:43.937Z,4.90
2023-07-26T02:04:10.355Z,4.60
2023-07-26T02:06:36.738Z,4.68
2023-07-26T02:09:03.271Z,4.55
2023-07-26T02:11:29.653Z,4.55
2023-07-26T02:13:56.081Z,4.05
2023-07-26T02:16:22.553Z,4.50
2023-07-26T02:18:48.951Z,4.93
2023-07-26T02:21:15.366Z,4.93
2023-07-26T02:23:41.834Z,4.93
2023-07-26T02:26:08.203Z,5.13
2023-07-26T02:28:34.581Z,4.88
2023-07-26T02:31:00.960Z,5.03
2023-07-26T02:33:27.375Z,4.75
2023-07-26T02:35:53.727Z,5.35
2023-07-26T02:38:20.112Z,4.85
2023-07-26T02:40:46.460Z,4.47
2023-07-26T02:43:13.941Z,5.05
2023-07-26T02:45:44.115Z,4.82
2023-07-26T02:48:10.608Z,5.10
2023-07-26T02:50:37.044Z,5.53
2023-07-26T02:53:03.433Z,5.28
2023-07-26T02:55:29.805Z,5.55
2023-07-26T02:57:56.241Z,6.50
2023-07-26T03:00:22.672Z,5.57
2023-07-26T03:02:49.126Z,5.68
2023-07-26T03:05:15.691Z,5.90
2023-07-26T03:07:42.085Z,5.13
2023-07-26T03:10:08.896Z,5.78
2023-07-26T03:12:35.279Z,5.70
2023-07-26T03:15:01.753Z,5.68
2023-07-26T03:17:28.154Z,5.72
2023-07-26T03:19:54.554Z,5.18
2023-07-26T03:22:20.910Z,5.07
2023-07-26T03:24:47.337Z,4.70
2023-07-26T03:27:13.765Z,5.65
2023-07-26T03:29:40.189Z,5.88
2023-07-26T03:32:07.366Z,5.40
2023-07-26T03:34:34.002Z,5.68
2023-07-26T03:37:01.167Z,5.28
2023-07-26T03:39:27.572Z,5.63
2023-07-26T03:41:55.038Z,5.85
2023-07-26T03:44:21.432Z,5.18
2023-07-26T03:46:47.928Z,5.38
2023-07-26T03:49:14.338Z,4.88
2023-07-26T03:51:40.726Z,5.30
2023-07-26T03:54:07.098Z,5.82
2023-07-26T03:56:33.725Z,5.75
2023-07-26T03:59:00.425Z,5.18
2023-07-26T04:01:26.999Z,5.85
2023-07-26T04:03:53.577Z,5.30
2023-07-26T04:06:20.075Z,5.10
2023-07-26T04:08:47.512Z,5.70
2023-07-26T04:11:13.939Z,5.63
2023-07-26T04:13:40.329Z,6.07
2023-07-26T04:16:33.114Z,5.78
2023-07-26T04:18:59.855Z,6.18
2023-07-26T04:21:26.232Z,5.97
2023-07-26T04:23:52.622Z,6.32
2023-07-26T04:26:18.960Z,5.65
2023-07-26T04:28:45.322Z,6.40
2023-07-26T04:31:11.755Z,5.65
2023-07-26T04:33:38.158Z,5.97
2023-07-26T04:36:04.712Z,5.53
2023-07-26T04:38:31.111Z,6.05
2023-07-26T04:40:57.460Z,6.15
2023-07-26T04:43:23.869Z,6.55
2023-07-26T04:45:51.500Z,6.25
2023-07-26T04:48:19.352Z,6.40
2023-07-26T04:50:47.414Z,6.28
2023-07-26T04:53:14.131Z,5.72
2023-07-26T04:55:51.710Z,5.63
2023-07-26T04:58:19.357Z,6.00
2023-07-26T05:00:46.042Z,6.03
2023-07-26T05:03:12.805Z,5.53
2023-07-26T05:05:40.161Z,5.63
2023-07-26T05:08:07.732Z,5.72
2023-07-26T05:10:34.880Z,5.47
2023-07-26T05:13:01.782Z,5.80
2023-07-26T05:15:28.179Z,5.63
2023-07-26T05:17:54.719Z,6.10
2023-07-26T05:20:21.152Z,5.35
2023-07-26T05:22:47.514Z,5.13
2023-07-26T05:25:13.906Z,5.47
2023-07-26T05:27:40.260Z,6.15
2023-07-26T05:30:07.349Z,5.47
2023-07-26T05:32:33.784Z,5.93
2023-07-26T05:35:00.186Z,6.40
2023-07-26T05:37:26.627Z,6.00
2023-07-26T05:39:53.108Z,5.68
2023-07-26T05:42:19.972Z,6.03
2023-07-26T05:44:46.420Z,6.00
2023-07-26T05:47:14.871Z,5.60
2023-07-26T05:49:44.934Z,5.53
2023-07-26T05:52:11.660Z,6.00
2023-07-26T05:54:38.090Z,6.18
2023-07-26T05:57:05.038Z,5.90
2023-07-26T05:59:31.515Z,5.63
2023-07-26T06:01:57.958Z,5.28
2023-07-26T06:04:24.346Z,5.70
2023-07-26T06:06:50.773Z,5.30
2023-07-26T06:09:17.300Z,5.47
2023-07-26T06:11:56.186Z,5.35
2023-07-26T06:14:23.414Z,5.45
2023-07-26T06:16:49.888Z,5.68
2023-07-26T06:19:16.713Z,5.85
2023-07-26T06:21:43.068Z,6.18
2023-07-26T06:24:09.440Z,5.53
2023-07-26T06:26:35.807Z,5.45
2023-07-26T06:29:02.188Z,5.00
2023-07-26T06:31:28.615Z,4.75
2023-07-26T06:33:55.009Z,4.70
2023-07-26T06:36:21.467Z,4.90
2023-07-26T06:38:47.853Z,4.35
2023-07-26T06:41:14.225Z,4.57
2023-07-26T06:43:40.551Z,4.43
2023-07-26T06:46:06.954Z,4.57
2023-07-26T06:48:33.365Z,4.20
2023-07-26T06:51:03.664Z,4.65
2023-07-26T06:53:30.049Z,4.10
2023-07-26T06:56:00.261Z,4.22
2023-07-26T06:58:26.842Z,4.07
2023-07-26T07:00:54.026Z,3.95
2023-07-26T07:03:20.469Z,3.97
2023-07-26T07:05:47.085Z,4.30
2023-07-26T07:08:13.606Z,5.00
2023-07-26T07:10:40.045Z,4.53
2023-07-26T07:13:06.460Z,4.72
2023-07-26T07:15:32.929Z,4.60
2023-07-26T07:18:14.339Z,4.35
2023-07-26T07:20:42.577Z,4.65
2023-07-26T07:23:08.965Z,4.65
2023-07-26T07:25:38.176Z,4.82
2023-07-26T07:28:04.725Z,5.45
2023-07-26T07:30:33.172Z,6.03
2023-07-26T07:32:59.598Z,5.40
2023-07-26T07:35:26.071Z,5.63
2023-07-26T07:37:52.432Z,5.70
2023-07-26T07:40:19.034Z,6.07
2023-07-26T07:42:45.484Z,7.03
2023-07-26T07:45:11.844Z,5.72
2023-07-26T07:47:38.315Z,6.15
2023-07-26T07:50:05.047Z,6.60
2023-07-26T07:52:33.426Z,6.50
2023-07-26T07:54:59.796Z,6.95
2023-07-26T07:57:26.239Z,7.70
2023-07-26T07:59:54.273Z,8.02
2023-07-26T08:02:22.121Z,8.05
2023-07-26T08:04:48.474Z,7.63
2023-07-26T08:07:14.898Z,7.30
2023-07-26T08:09:44.374Z,7.60
2023-07-26T08:12:10.791Z,6.50
2023-07-26T08:14:37.250Z,6.78
2023-07-26T08:17:03.905Z,6.40
2023-07-26T08:19:30.333Z,5.78
2023-07-26T08:21:56.724Z,5.05
2023-07-26T08:24:23.852Z,5.13
2023-07-26T08:26:50.809Z,5.28
2023-07-26T08:29:17.237Z,5.40
2023-07-26T08:31:43.624Z,5.80
2023-07-26T08:34:10.031Z,5.57
2023-07-26T08:36:36.444Z,5.47
2023-07-26T08:39:02.818Z,5.00
2023-07-26T08:41:31.695Z,4.28
2023-07-26T08:44:00.610Z,4.10
2023-07-26T08:46:28.612Z,4.18
2023-07-26T08:48:55.813Z,3.40
2023-07-26T08:51:23.088Z,2.38
2023-07-26T08:53:50.598Z,2.33
2023-07-26T08:56:17.595Z,2.13
2023-07-26T08:58:44.010Z,2.30
2023-07-26T09:01:10.691Z,2.00
2023-07-26T09:03:37.335Z,2.60
2023-07-26T09:06:06.339Z,2.28
2023-07-26T09:08:32.814Z,2.50
2023-07-26T09:10:59.349Z,2.25
2023-07-26T09:13:25.676Z,2.40
2023-07-26T09:15:52.135Z,2.30
2023-07-26T09:18:18.548Z,2.30
2023-07-26T09:20:44.921Z,2.50
2023-07-26T09:23:13.060Z,2.20
2023-07-26T09:25:44.697Z,2.38
2023-07-26T09:28:12.808Z,2.20
2023-07-26T09:30:43.873Z,2.45
2023-07-26T09:33:12.347Z,2.40
2023-07-26T09:35:52.016Z,2.38
2023-07-26T09:38:24.216Z,2.50
2023-07-26T09:40:50.847Z,2.70
2023-07-26T09:43:34.041Z,2.50
2023-07-26T09:46:07.042Z,2.70
2023-07-26T09:51:20.411Z,2.65
2023-07-26T09:53:48.380Z,2.50
2023-07-26T09:56:15.055Z,2.70
2023-07-26T09:58:43.841Z,2.60
2023-07-26T10:01:13.493Z,2.90
2023-07-26T10:03:42.264Z,3.60
2023-07-26T10:06:09.670Z,2.75
2023-07-26T10:08:38.861Z,3.03
2023-07-26T10:11:07.117Z,2.65
2023-07-26T10:13:34.889Z,3.00
2023-07-26T10:16:02.961Z,2.92
2023-07-26T10:18:31.774Z,2.38
2023-07-26T10:21:01.284Z,3.08
2023-07-26T10:23:29.603Z,3.97
2023-07-26T10:25:56.897Z,2.55
2023-07-26T10:28:24.704Z,3.00
2023-07-26T10:30:53.326Z,2.30
2023-07-26T10:33:19.904Z,1.95
2023-07-26T10:35:46.953Z,2.10
2023-07-26T10:38:13.458Z,2.10
2023-07-26T10:40:41.099Z,2.15
2023-07-26T10:43:17.739Z,2.10
2023-07-26T10:45:44.603Z,2.13
2023-07-26T10:48:15.216Z,2.10
2023-07-26T10:50:41.725Z,2.60
2023-07-26T10:53:37.275Z,2.50
2023-07-26T10:56:23.836Z,1.60
2023-07-26T10:58:53.529Z,1.50
2023-07-26T11:01:40.575Z,1.58
2023-07-26T11:04:10.926Z,1.67
2023-07-26T11:06:56.618Z,1.60
2023-07-26T11:09:28.025Z,1.55
2023-07-26T11:11:59.397Z,1.67
2023-07-26T11:14:31.704Z,2.08
2023-07-26T11:19:25.652Z,1.85
2023-07-26T11:21:52.074Z,1.60
2023-07-26T11:24:27.396Z,1.70
2023-07-26T11:26:53.834Z,1.92
2023-07-26T11:29:21.555Z,3.38
2023-07-26T11:31:49.453Z,2.00
2023-07-26T11:34:15.821Z,1.65
2023-07-26T11:36:42.445Z,1.80
2023-07-26T11:39:19.295Z,2.05
2023-07-26T11:41:46.011Z,1.77
2023-07-26T11:44:13.981Z,1.88
2023-07-26T11:46:43.456Z,1.95
2023-07-26T11:49:21.179Z,1.90
2023-07-26T11:51:48.845Z,1.80
2023-07-26T11:54:15.532Z,2.10
2023-07-26T11:56:42.731Z,2.40
2023-07-26T11:59:10.248Z,2.47
2023-07-26T12:01:38.076Z,2.00
2023-07-26T12:04:15.119Z,2.22
2023-07-26T12:06:43.329Z,2.00
2023-07-26T12:09:10.140Z,6.20
2023-07-26T12:11:41.444Z,2.20
2023-07-26T12:14:08.198Z,2.70
2023-07-26T12:16:36.118Z,2.13
2023-07-26T12:19:03.108Z,3.67
2023-07-26T12:21:29.868Z,3.00
2023-07-26T12:24:03.616Z,3.30
2023-07-26T12:26:33.722Z,2.83
2023-07-26T12:29:02.688Z,2.53
2023-07-26T12:31:36.235Z,2.95
2023-07-26T12:34:04.338Z,2.80
2023-07-26T12:36:42.588Z,2.88
2023-07-26T12:39:10.043Z,3.05
2023-07-26T12:41:39.004Z,2.50
2023-07-26T12:44:08.075Z,2.80
2023-07-26T12:46:49.763Z,2.60
2023-07-26T12:49:21.890Z,2.75
2023-07-26T12:51:48.625Z,2.33
2023-07-26T12:54:15.089Z,2.40
2023-07-26T12:56:41.484Z,1.95
2023-07-26T12:59:09.216Z,2.00
2023-07-26T13:01:36.866Z,2.30
2023-07-26T13:04:03.411Z,2.17
2023-07-26T13:06:29.930Z,2.30
2023-07-26T13:08:56.378Z,2.30
2023-07-26T13:11:22.790Z,2.60
2023-07-26T13:13:49.196Z,2.30
2023-07-26T13:16:15.709Z,2.15
2023-07-26T13:18:42.252Z,2.50
2023-07-26T13:21:08.651Z,1.90
2023-07-26T13:23:35.085Z,2.20
2023-07-26T13:26:01.508Z,2.22
2023-07-26T13:28:27.890Z,2.20
2023-07-26T13:30:54.258Z,2.33
2023-07-26T13:33:20.769Z,2.70
2023-07-26T13:35:47.673Z,2.30
2023-07-26T13:38:14.102Z,2.30
2023-07-26T13:40:40.488Z,2.20
2023-07-26T13:43:06.886Z,2.30
2023-07-26T13:45:33.302Z,2.13
2023-07-26T13:47:59.751Z,2.50
2023-07-26T13:50:26.139Z,2.60
2023-07-26T13:52:52.545Z,2.50
2023-07-26T13:55:19.019Z,2.80
2023-07-26T13:57:45.611Z,2.60
2023-07-26T14:00:12.581Z,2.80
2023-07-26T14:02:39.293Z,2.58
2023-07-26T14:05:05.908Z,2.70
2023-07-26T14:07:32.245Z,2.63
2023-07-26T14:09:58.690Z,2.83
2023-07-26T14:12:25.084Z,2.90
2023-07-26T14:14:51.453Z,2.83
2023-07-26T14:17:17.959Z,2.80
2023-07-26T14:19:44.337Z,2.70
2023-07-26T14:22:10.846Z,2.80
2023-07-26T14:24:37.284Z,2.67
2023-07-26T14:27:03.853Z,2.80
2023-07-26T14:29:30.208Z,3.33
2023-07-26T14:31:56.620Z,2.80
2023-07-26T14:34:23.941Z,2.90
2023-07-26T14:36:50.483Z,3.15
2023-07-26T14:39:16.938Z,2.90
2023-07-26T14:41:43.347Z,2.60
2023-07-26T14:44:09.682Z,2.90
2023-07-26T14:46:36.249Z,2.80
2023-07-26T14:49:02.965Z,2.85
2023-07-26T14:51:29.294Z,2.70
2023-07-26T14:53:55.627Z,2.30
2023-07-26T14:56:21.991Z,2.30
2023-07-26T14:58:48.389Z,2.40
2023-07-26T15:01:14.799Z,2.45
2023-07-26T15:03:41.462Z,2.15
2023-07-26T15:06:07.926Z,2.20
2023-07-26T15:08:34.321Z,2.42
2023-07-26T15:11:00.753Z,2.60
2023-07-26T15:13:27.132Z,2.50
2023-07-26T15:15:53.534Z,2.45
2023-07-26T15:18:19.906Z,2.10
2023-07-26T15:20:46.348Z,2.10
2023-07-26T15:23:13.098Z,2.28
2023-07-26T15:25:39.833Z,2.10
2023-07-26T15:28:06.327Z,2.35
2023-07-26T15:30:36.225Z,2.20
2023-07-26T15:33:02.680Z,2.20
2023-07-26T15:35:32.466Z,2.40
2023-07-26T15:37:58.945Z,2.50
2023-07-26T15:40:26.676Z,2.13
2023-07-26T15:45:23.282Z,2.17
2023-07-26T15:47:49.722Z,2.20
2023-07-26T15:50:16.203Z,2.03
2023-07-26T15:52:42.732Z,2.13
2023-07-26T15:55:09.607Z,1.70
2023-07-26T15:57:36.041Z,1.90
2023-07-26T16:00:02.660Z,1.70
2023-07-26T16:02:29.490Z,2.58
2023-07-26T16:07:25.455Z,2.00
2023-07-26T16:09:51.993Z,2.03
2023-07-26T16:14:47.693Z,1.90
2023-07-26T16:17:14.130Z,1.88
2023-07-26T16:22:09.753Z,2.00
2023-07-26T16:24:36.249Z,2.50
2023-07-26T16:27:02.660Z,1.98
2023-07-26T16:29:29.083Z,2.08
2023-07-26T16:31:55.573Z,2.30
2023-07-26T16:34:22.024Z,2.40
2023-07-26T16:36:48.407Z,2.03
2023-07-26T16:39:14.785Z,1.70
2023-07-26T16:41:41.376Z,1.77
2023-07-26T16:44:07.809Z,1.98
2023-07-26T16:46:52.228Z,1.95
2023-07-26T16:49:21.602Z,1.90
2023-07-26T16:51:48.037Z,2.08
2023-07-26T16:54:14.385Z,1.92
2023-07-26T16:56:40.774Z,2.22
2023-07-26T16:59:07.211Z,1.98
2023-07-26T17:01:33.679Z,1.90
2023-07-26T17:04:00.087Z,1.95
2023-07-26T17:06:26.535Z,2.20
2023-07-26T17:08:52.947Z,2.15
2023-07-26T17:11:19.485Z,2.38
2023-07-26T17:13:45.830Z,2.03
2023-07-26T17:16:12.268Z,1.92
2023-07-26T17:18:40.235Z,1.90
2023-07-26T17:21:08.017Z,2.00
2023-07-26T17:23:34.599Z,1.90
2023-07-26T17:26:00.960Z,1.90
2023-07-26T17:28:27.345Z,1.90
2023-07-26T17:30:54.684Z,2.15
2023-07-26T17:33:21.530Z,1.95
2023-07-26T17:35:47.877Z,1.90
2023-07-26T17:38:14.258Z,1.90
2023-07-26T17:40:40.611Z,1.92
2023-07-26T17:43:07.994Z,1.90
2023-07-26T17:45:34.538Z,2.22
2023-07-26T17:48:01.095Z,1.77
2023-07-26T17:50:27.581Z,1.90
2023-07-26T17:52:54.069Z,1.90
2023-07-26T17:55:20.577Z,1.90
2023-07-26T17:57:58.900Z,1.80
2023-07-26T18:00:28.111Z,1.83
2023-07-26T18:02:54.519Z,2.00
2023-07-26T18:05:21.148Z,1.80
2023-07-26T18:07:47.489Z,1.85
2023-07-26T18:10:13.862Z,1.98
2023-07-26T18:12:40.347Z,1.92
2023-07-26T18:15:07.773Z,2.13
2023-07-26T18:17:34.735Z,1.70
2023-07-26T18:20:01.352Z,2.08
2023-07-26T18:22:27.865Z,1.80
2023-07-26T18:24:54.383Z,2.10
2023-07-26T18:27:20.897Z,1.77
2023-07-26T18:29:47.352Z,2.42
2023-07-26T18:32:13.706Z,2.15
2023-07-26T18:34:40.010Z,1.73
2023-07-26T18:37:06.424Z,2.20
2023-07-26T18:39:32.842Z,2.35
2023-07-26T18:41:59.241Z,2.15
2023-07-26T18:44:25.632Z,1.98
2023-07-26T18:46:52.360Z,2.10
2023-07-26T18:49:18.752Z,1.90
2023-07-26T18:51:45.137Z,2.00
2023-07-26T18:54:11.519Z,2.05
2023-07-26T18:56:37.885Z,2.20
2023-07-26T18:59:04.297Z,2.35
2023-07-26T19:01:30.658Z,2.08
2023-07-26T19:03:57.059Z,1.90
2023-07-26T19:06:23.437Z,2.00
2023-07-26T19:08:49.904Z,1.92
2023-07-26T19:11:16.277Z,1.88
2023-07-26T19:13:42.647Z,2.10
2023-07-26T19:16:09.458Z,2.40
2023-07-26T19:18:35.835Z,2.30
2023-07-26T19:21:03.752Z,2.40
2023-07-26T19:23:30.147Z,2.15
2023-07-26T19:25:56.648Z,2.63
2023-07-26T19:28:23.038Z,2.50
2023-07-26T19:30:49.415Z,2.40
2023-07-26T19:33:15.833Z,2.35
2023-07-26T19:35:42.204Z,2.30
2023-07-26T19:38:08.570Z,2.30
2023-07-26T19:40:37.621Z,2.25
2023-07-26T19:43:04.030Z,2.75
2023-07-26T19:45:30.436Z,2.50
2023-07-26T19:47:56.809Z,3.58
2023-07-26T19:50:23.212Z,3.90
2023-07-26T19:52:49.603Z,3.38
2023-07-26T19:55:15.963Z,2.72
2023-07-26T19:57:42.332Z,2.50
2023-07-26T20:00:09.215Z,2.50
2023-07-26T20:02:35.729Z,2.50
2023-07-26T20:05:02.163Z,2.70
2023-07-26T20:07:28.516Z,2.75
2023-07-26T20:09:54.904Z,2.83
2023-07-26T20:12:21.312Z,2.95
2023-07-26T20:14:47.663Z,2.95
2023-07-26T20:17:14.021Z,2.95
2023-07-26T20:19:40.377Z,3.20
2023-07-26T20:22:06.797Z,3.05
2023-07-26T20:24:33.150Z,3.38
2023-07-26T20:26:59.532Z,2.83
2023-07-26T20:29:25.893Z,3.05
2023-07-26T20:31:52.288Z,3.40
2023-07-26T20:34:18.646Z,3.70
2023-07-26T20:36:45.002Z,3.50
2023-07-26T20:39:11.340Z,3.05
2023-07-26T20:41:37.706Z,3.45
2023-07-26T20:44:04.241Z,3.45
2023-07-26T20:46:30.638Z,3.80
2023-07-26T20:48:57.002Z,3.65
2023-07-26T20:51:23.416Z,3.35
2023-07-26T20:53:49.762Z,3.38
2023-07-26T20:56:16.145Z,3.58
2023-07-26T20:58:42.486Z,3.40
2023-07-26T21:01:08.885Z,3.10
2023-07-26T21:03:35.356Z,3.67
2023-07-26T21:06:01.805Z,3.55
2023-07-26T21:08:28.196Z,3.60
2023-07-26T21:10:54.623Z,3.72
2023-07-26T21:13:20.984Z,3.67
2023-07-26T21:15:47.415Z,3.80
2023-07-26T21:18:13.838Z,3.70
2023-07-26T21:20:41.155Z,3.80
2023-07-26T21:23:07.530Z,3.63
2023-07-26T21:25:33.881Z,3.25
2023-07-26T21:28:00.241Z,3.92
2023-07-26T21:30:26.595Z,4.05
2023-07-26T21:32:52.935Z,3.95
2023-07-26T21:35:19.375Z,3.80
2023-07-26T21:37:45.717Z,4.03
2023-07-26T21:40:12.180Z,4.10
2023-07-26T21:42:38.542Z,3.65
2023-07-26T21:45:05.492Z,3.60
2023-07-26T21:47:31.865Z,4.20
2023-07-26T21:49:58.242Z,4.10
2023-07-26T21:52:24.578Z,4.22
2023-07-26T21:54:50.905Z,4.05
2023-07-26T21:57:17.319Z,4.40
2023-07-26T21:59:43.658Z,3.92
2023-07-26T22:02:10.048Z,3.70
2023-07-26T22:04:36.489Z,4.78
2023-07-26T22:07:03.318Z,3.65
2023-07-26T22:09:31.306Z,4.05
2023-07-26T22:11:57.632Z,4.13
2023-07-26T22:14:23.995Z,4.70
2023-07-26T22:16:50.505Z,3.90
2023-07-26T22:19:16.898Z,4.18
2023-07-26T22:21:43.290Z,4.45
2023-07-26T22:24:09.711Z,3.85
2023-07-26T22:26:36.246Z,4.43
2023-07-26T22:29:02.803Z,3.67
2023-07-26T22:31:29.456Z,4.03
2023-07-26T22:33:56.072Z,3.58
2023-07-26T22:36:22.665Z,4.30
2023-07-26T22:38:49.065Z,4.10
2023-07-26T22:41:15.433Z,3.78
2023-07-26T22:43:46.034Z,3.80
2023-07-26T22:46:13.110Z,3.95
2023-07-26T22:48:41.394Z,3.70
2023-07-26T22:51:07.768Z,4.07
2023-07-26T22:53:34.138Z,4.00
2023-07-26T22:56:00.501Z,4.35
2023-07-26T22:58:26.989Z,4.30
2023-07-26T23:01:04.541Z,4.63
2023-07-26T23:03:31.789Z,4.53
2023-07-26T23:05:59.720Z,4.30
2023-07-26T23:08:26.966Z,4.60
2023-07-26T23:11:04.671Z,4.63
2023-07-26T23:13:33.085Z,4.80
2023-07-26T23:16:00.568Z,4.50
2023-07-26T23:18:27.746Z,4.53
2023-07-26T23:20:55.041Z,4.30
2023-07-26T23:23:23.624Z,4.65
2023-07-26T23:25:50.796Z,5.07
2023-07-26T23:28:17.473Z,4.65
2023-07-26T23:30:51.574Z,4.15
2023-07-26T23:33:18.934Z,4.50
2023-07-26T23:35:46.599Z,4.85
2023-07-26T23:38:13.358Z,4.55
2023-07-26T23:40:40.482Z,4.50
2023-07-26T23:43:09.079Z,4.80
2023-07-26T23:45:36.564Z,4.78
2023-07-26T23:48:03.648Z,4.88
2023-07-26T23:50:30.135Z,4.80
2023-07-26T23:52:56.550Z,4.57
2023-07-26T23:55:22.976Z,4.93
2023-07-26T23:57:49.310Z,4.72
